Airfield :
LOGIN :

Register | Disclaimer

   EN    FR    IT 

 










Legend :    VFR   Marginal VFR   IFR   Intensive IFR   Very Intensive IFR
Visi :
Ceiling :
>= 8 km
>= 3000ft
5 to 8 km
1000 to 3000 ft
1500m to 5 km
500 to 1000 ft
800 to 1500m
200 to 500 ft
< 800m
< 200 ft
Symbols :   Thunderstorms  Fog  Heavy snow  Heavy precipitations  Wind > 20 kt
SIGMETs :     Misc.  Thunderstorms  Icing  Turbulence  Mountain Waves  Volcanic Ashes






- Airport Elevation : 506 ft
- IATA code : GOT


ESGG - Landvetter

CURRENT METAR :
  • 131150Z 13005KT 9999 BKN006 04/03 Q1000 R21/29//95

EXPIRED METARs :
  • 131120Z 14005KT 9999 BKN005 BKN020 OVC043 04/03 Q1000 R21/29//95
  • 131050Z 14006KT 9999 BKN005 OVC016 04/03 Q1000 R21/29//95
  • 131020Z 14007KT 7000 OVC004 03/03 Q1000 R21/29//95
  • 130950Z 15008KT 6000 OVC003 03/02 Q1000 R21/29//95
  • 130920Z 14008KT 5000 BR OVC003 03/02 Q1000 R21/29//95
  • 130850Z 14008KT 5000 BR VV003 03/02 Q1000 R21/29//95

TAF TAF ESGG
Valid from the 13 at 12:00 until the 14 at 12:00 UTC


131130Z 1312/1412 14008KT 9999 BKN005
PROB40 1312/1318 BKN018
PROB40 1318/1406 2000 BR BKN004
PROB40 1406/1412 SCT020CB



MET'MAP, your aeronautical weather chart ! - Copyright ORBIFLY December 2007 - Disclaimer

ORBIFLY MET'MAP TEAM :

Programming & Development : Alexandra Zaïnal
Concept & Development : Baudouin d'Aumeries
Co-Development & Prog : Marc-Olivier Méhu
Technical & hardware support : Manuel Goepfert

Contact : metmap@orbifly.com




SOURCES & CREDITS :

   NOAA